Time;durP1;ratioP1;P1;durP2;ratioP2;P2;SDS_P1;SDS_P2;PMS_P1;PMS_P2;Temp;Humidity;BMP_temperature;BMP_pressure;BME280_temperature;BME280_humidity;BME280_pressure;Samples;Min_cycle;Max_cycle;Signal;HPM_P1;HPM_P2
2022/10/17 00:00:39;;;;;;;15.93;3.90;;;;;;;13.24;100.00;101722.47;5073336;28;20468;-72
2022/10/17 00:03:06;;;;;;;10.43;4.60;;;;;;;13.18;100.00;101733.66;5072276;28;20481;-71
2022/10/17 00:05:33;;;;;;;12.53;4.20;;;;;;;13.20;100.00;101735.00;5073217;28;21000;-71
2022/10/17 00:08:01;;;;;;;9.37;4.57;;;;;;;13.22;100.00;101740.97;5072104;28;20997;-72
2022/10/17 00:10:27;;;;;;;8.33;3.97;;;;;;;13.26;100.00;101731.13;5072665;28;20461;-71
2022/10/17 00:12:53;;;;;;;7.10;4.33;;;;;;;13.36;100.00;101706.50;5083510;22;20453;-69
2022/10/17 00:15:21;;;;;;;8.93;4.17;;;;;;;13.42;100.00;101712.72;5052558;28;20456;-68
2022/10/17 00:17:47;;;;;;;14.20;4.40;;;;;;;13.40;100.00;101712.19;5052796;28;20486;-72
2022/10/17 00:20:14;;;;;;;6.90;3.77;;;;;;;13.38;100.00;101725.28;5052548;28;20832;-70
2022/10/17 00:22:41;;;;;;;7.40;3.70;;;;;;;13.35;100.00;101732.09;5050294;28;20488;-69
2022/10/17 00:25:09;;;;;;;8.70;4.57;;;;;;;13.32;100.00;101724.50;5053083;28;20473;-67
2022/10/17 00:27:36;;;;;;;7.67;3.93;;;;;;;13.29;99.78;101721.59;5052647;28;20874;-68
2022/10/17 00:30:04;;;;;;;8.83;4.13;;;;;;;13.25;99.52;101710.47;5052345;28;20470;-67
2022/10/17 00:32:31;;;;;;;10.60;3.87;;;;;;;13.24;99.96;101708.06;5051748;28;20462;-67
2022/10/17 00:34:58;;;;;;;9.17;4.27;;;;;;;13.24;100.00;101708.84;5052013;28;20454;-67
2022/10/17 00:37:24;;;;;;;9.37;4.07;;;;;;;13.28;100.00;101712.63;5052652;28;20454;-67
2022/10/17 00:39:51;;;;;;;8.90;3.80;;;;;;;13.29;100.00;101713.44;5051949;28;20955;-67
2022/10/17 00:42:19;;;;;;;7.97;4.23;;;;;;;13.31;100.00;101725.63;5051707;28;20469;-67
2022/10/17 00:45:02;;;;;;;10.07;4.40;;;;;;;13.32;100.00;101727.22;5051071;28;20987;-67
2022/10/17 00:47:30;;;;;;;11.23;3.77;;;;;;;13.33;100.00;101734.31;5052486;28;21029;-67
2022/10/17 00:49:57;;;;;;;6.00;3.07;;;;;;;13.38;100.00;101722.56;5052293;28;20476;-68
2022/10/17 00:52:26;;;;;;;11.60;4.03;;;;;;;13.38;100.00;101736.97;5051673;28;20982;-67
2022/10/17 00:54:57;;;;;;;9.20;3.70;;;;;;;13.35;100.00;101725.84;5052192;28;20465;-67
2022/10/17 00:57:27;;;;;;;7.57;3.90;;;;;;;13.42;100.00;101725.50;5051560;28;20883;-67
2022/10/17 00:59:57;;;;;;;7.97;3.87;;;;;;;13.46;100.00;101710.19;5051767;28;20454;-67
2022/10/17 01:02:23;;;;;;;9.90;4.17;;;;;;;13.46;100.00;101705.59;5051571;28;20524;-67
2022/10/17 01:04:52;;;;;;;8.87;4.20;;;;;;;13.50;100.00;101705.78;5050648;28;20485;-67
2022/10/17 01:07:18;;;;;;;9.17;4.90;;;;;;;13.44;100.00;101715.13;5051763;28;20458;-67
2022/10/17 01:09:46;;;;;;;9.70;3.70;;;;;;;13.44;100.00;101712.41;5051700;28;21028;-67
2022/10/17 01:12:19;;;;;;;12.63;4.07;;;;;;;13.36;100.00;101711.94;5051099;28;20516;-69
2022/10/17 01:14:57;;;;;;;9.63;4.27;;;;;;;13.40;100.00;101700.47;5044626;28;20490;-69
2022/10/17 01:17:32;;;;;;;9.30;4.77;;;;;;;13.34;100.00;101703.28;5051141;28;20450;-67
2022/10/17 01:20:43;;;;;;;8.03;4.43;;;;;;;13.26;100.00;101708.56;5051835;28;20978;-67
2022/10/17 01:23:24;;;;;;;22.43;5.73;;;;;;;13.16;100.00;101711.38;5051854;28;20477;-69
2022/10/17 01:25:56;;;;;;;7.10;4.17;;;;;;;13.08;99.76;101705.47;5050937;28;20481;-69
2022/10/17 01:28:38;;;;;;;9.57;4.57;;;;;;;13.00;99.16;101708.00;5052632;28;20423;-68
2022/10/17 01:31:12;;;;;;;8.13;3.57;;;;;;;12.88;99.34;101709.25;5050454;28;20454;-67
2022/10/17 01:33:48;;;;;;;7.73;3.60;;;;;;;12.85;99.58;101696.22;5052269;28;20482;-67
2022/10/17 01:36:27;;;;;;;7.47;3.53;;;;;;;12.86;100.00;101692.38;5050417;28;20465;-71
2022/10/17 01:39:00;;;;;;;8.83;3.93;;;;;;;12.89;100.00;101696.44;5042346;28;20454;-70
2022/10/17 01:41:38;;;;;;;15.07;4.23;;;;;;;12.92;100.00;101687.69;5051949;28;20461;-70
2022/10/17 01:44:11;;;;;;;8.67;5.10;;;;;;;12.87;100.00;101688.56;5051184;28;20991;-70
2022/10/17 01:46:42;;;;;;;8.30;4.33;;;;;;;12.91;100.00;101685.28;5051626;28;20461;-68
2022/10/17 01:49:13;;;;;;;10.23;4.23;;;;;;;12.91;100.00;101682.56;5052049;28;20507;-68
2022/10/17 01:51:44;;;;;;;6.40;3.30;;;;;;;12.93;100.00;101685.81;5051584;28;20485;-68
2022/10/17 01:54:16;;;;;;;13.50;3.50;;;;;;;12.90;100.00;101684.47;5051934;28;20478;-68
2022/10/17 01:56:45;;;;;;;23.00;5.10;;;;;;;12.83;100.00;101676.66;5051577;28;20528;-68
2022/10/17 01:59:14;;;;;;;9.67;3.20;;;;;;;12.79;100.00;101669.34;5050340;28;20814;-68
2022/10/17 02:01:47;;;;;;;9.00;4.00;;;;;;;12.71;100.00;101670.81;5052122;28;20524;-68
2022/10/17 02:04:15;;;;;;;11.40;3.93;;;;;;;12.57;100.00;101669.84;5055621;28;20620;-69
2022/10/17 02:06:41;;;;;;;8.53;4.20;;;;;;;12.50;99.91;101677.56;5055202;28;20462;-70
2022/10/17 02:09:18;;;;;;;8.40;4.17;;;;;;;12.50;99.93;101670.22;5054522;28;20830;-68
2022/10/17 02:11:52;;;;;;;7.50;3.93;;;;;;;12.52;100.00;101680.78;5055981;28;20511;-70
2022/10/17 02:14:31;;;;;;;8.30;4.10;;;;;;;12.57;100.00;101678.84;5055250;28;20877;-69
2022/10/17 02:17:08;;;;;;;9.17;3.90;;;;;;;12.62;100.00;101676.06;5055550;28;20963;-68
2022/10/17 02:19:43;;;;;;;9.07;4.03;;;;;;;12.65;100.00;101665.72;5040255;28;20489;-70
2022/10/17 02:22:18;;;;;;;12.83;3.93;;;;;;;12.65;100.00;101674.66;5053935;28;20480;-69
2022/10/17 02:24:50;;;;;;;11.43;4.60;;;;;;;12.75;100.00;101674.59;5055091;28;20481;-68
2022/10/17 02:27:24;;;;;;;9.93;4.10;;;;;;;12.81;100.00;101673.41;5054165;28;20504;-67
2022/10/17 02:29:58;;;;;;;12.30;4.77;;;;;;;12.86;100.00;101672.53;5053490;28;20524;-66
2022/10/17 02:32:34;;;;;;;12.50;5.07;;;;;;;12.90;100.00;101670.06;5055188;28;20952;-67
2022/10/17 02:35:03;;;;;;;12.00;5.27;;;;;;;12.84;100.00;101672.84;5053783;28;20450;-69
2022/10/17 02:37:32;;;;;;;10.83;4.60;;;;;;;12.95;100.00;101678.16;5055176;28;20462;-70
2022/10/17 02:40:00;;;;;;;15.73;5.83;;;;;;;13.02;100.00;101667.75;5044684;28;20508;-71
2022/10/17 02:42:28;;;;;;;7.70;4.30;;;;;;;13.02;100.00;101667.75;5055321;28;20500;-70
2022/10/17 02:44:59;;;;;;;9.30;4.40;;;;;;;13.08;100.00;101661.94;5054579;28;20482;-70
2022/10/17 02:47:32;;;;;;;8.73;4.10;;;;;;;13.09;100.00;101654.59;5055276;28;20818;-68
2022/10/17 02:49:59;;;;;;;13.43;4.53;;;;;;;13.14;100.00;101657.25;5054914;28;20470;-68
2022/10/17 02:52:30;;;;;;;8.53;4.70;;;;;;;13.20;100.00;101653.38;5053114;28;20466;-68
2022/10/17 02:55:03;;;;;;;7.43;3.77;;;;;;;13.18;100.00;101643.88;5054329;28;20458;-70
2022/10/17 02:57:33;;;;;;;9.17;3.90;;;;;;;13.18;100.00;101643.88;5054504;28;20469;-70
2022/10/17 03:00:02;;;;;;;8.30;4.23;;;;;;;13.13;100.00;101651.00;5054785;28;20484;-69
2022/10/17 03:02:38;;;;;;;9.20;4.27;;;;;;;13.10;100.00;101654.31;5055011;28;20490;-70
2022/10/17 03:05:05;;;;;;;8.57;3.93;;;;;;;13.09;100.00;101662.75;5053367;28;20488;-68
2022/10/17 03:07:32;;;;;;;8.83;3.77;;;;;;;13.10;100.00;101658.91;5054160;28;20458;-68
2022/10/17 03:09:58;;;;;;;8.23;3.80;;;;;;;13.10;100.00;101659.75;5053875;28;20458;-68
2022/10/17 03:12:25;;;;;;;8.63;4.17;;;;;;;13.11;100.00;101653.22;5053314;28;21230;-68
2022/10/17 03:14:51;;;;;;;8.47;3.53;;;;;;;13.18;100.00;101669.16;5052895;28;20954;-68
2022/10/17 03:17:18;;;;;;;6.93;3.10;;;;;;;13.19;100.00;101657.16;5053103;28;20462;-70
2022/10/17 03:19:45;;;;;;;8.47;4.20;;;;;;;13.22;100.00;101648.47;5054320;28;20462;-69
2022/10/17 03:22:12;;;;;;;6.73;3.77;;;;;;;13.22;100.00;101656.63;5053923;28;20461;-69
2022/10/17 03:24:38;;;;;;;9.97;4.33;;;;;;;13.24;100.00;101657.16;5051577;28;20500;-68
2022/10/17 03:27:05;;;;;;;14.80;5.00;;;;;;;13.25;100.00;101656.06;5051971;28;20466;-68
2022/10/17 03:29:31;;;;;;;7.33;3.50;;;;;;;13.27;100.00;101650.31;5052521;28;20474;-70
2022/10/17 03:31:57;;;;;;;11.27;3.87;;;;;;;13.30;100.00;101639.66;5054222;28;20492;-68
2022/10/17 03:34:24;;;;;;;8.63;3.93;;;;;;;13.34;100.00;101634.44;5053752;28;20849;-68
2022/10/17 03:36:52;;;;;;;6.40;3.13;;;;;;;13.41;100.00;101642.22;5053623;28;20485;-67
2022/10/17 03:39:18;;;;;;;7.40;3.10;;;;;;;13.47;100.00;101641.88;5054277;28;20841;-67
2022/10/17 03:41:45;;;;;;;9.40;3.20;;;;;;;13.57;100.00;101649.06;5049595;28;20454;-67
2022/10/17 03:44:12;;;;;;;9.17;3.77;;;;;;;13.57;100.00;101654.53;5034150;28;20533;-68
2022/10/17 03:46:38;;;;;;;6.90;3.30;;;;;;;13.63;100.00;101650.59;5037404;28;21010;-69
2022/10/17 03:49:05;;;;;;;8.60;3.70;;;;;;;13.72;100.00;101642.56;5052564;28;20461;-69
2022/10/17 03:51:33;;;;;;;6.70;2.93;;;;;;;13.76;100.00;101644.41;5052149;28;20955;-69
2022/10/17 03:54:01;;;;;;;7.67;3.40;;;;;;;13.80;100.00;101641.91;5052831;28;20474;-70
2022/10/17 03:56:27;;;;;;;7.27;3.57;;;;;;;13.79;100.00;101632.94;5051975;28;20450;-70
2022/10/17 03:58:54;;;;;;;6.17;3.00;;;;;;;13.80;100.00;101639.19;5054261;28;20525;-69
2022/10/17 04:01:22;;;;;;;7.27;3.47;;;;;;;13.79;100.00;101632.94;5051665;28;20955;-67
2022/10/17 04:03:50;;;;;;;7.30;3.40;;;;;;;13.73;100.00;101636.84;5053111;28;20482;-70
2022/10/17 04:06:17;;;;;;;8.20;3.97;;;;;;;13.73;100.00;101641.50;5053002;28;21085;-69
2022/10/17 04:08:43;;;;;;;9.77;3.20;;;;;;;13.72;100.00;101634.41;5053228;28;20466;-70
2022/10/17 04:11:15;;;;;;;10.03;3.43;;;;;;;13.69;100.00;101635.81;5052856;28;20458;-70
2022/10/17 04:13:41;;;;;;;6.70;3.30;;;;;;;13.69;100.00;101629.56;5052812;28;20507;-70
2022/10/17 04:16:12;;;;;;;6.37;3.00;;;;;;;13.66;100.00;101633.69;5053123;28;20458;-70
2022/10/17 04:18:38;;;;;;;9.40;3.20;;;;;;;13.59;100.00;101634.06;5053291;28;20512;-70
2022/10/17 04:21:06;;;;;;;7.00;3.10;;;;;;;13.57;100.00;101635.47;5051348;28;21017;-70
2022/10/17 04:23:33;;;;;;;6.23;3.20;;;;;;;13.51;100.00;101625.75;5052585;28;20512;-70
2022/10/17 04:26:00;;;;;;;8.50;4.00;;;;;;;13.52;100.00;101630.09;5052004;28;20491;-70
2022/10/17 04:28:29;;;;;;;8.13;3.30;;;;;;;13.47;100.00;101627.44;5050704;28;20486;-70
2022/10/17 04:30:57;;;;;;;7.73;4.10;;;;;;;13.43;100.00;101624.50;5052454;28;20454;-70
2022/10/17 04:33:23;;;;;;;6.27;3.10;;;;;;;13.44;100.00;101625.31;5050585;28;20513;-73
2022/10/17 04:35:55;;;;;;;6.10;3.17;;;;;;;13.44;100.00;101619.88;5052564;28;20454;-71
2022/10/17 04:38:22;;;;;;;7.07;3.27;;;;;;;13.40;100.00;101618.84;5052592;28;20477;-70
2022/10/17 04:40:48;;;;;;;6.80;3.50;;;;;;;13.42;100.00;101627.53;5052281;28;20461;-70
2022/10/17 04:43:15;;;;;;;7.23;2.90;;;;;;;13.38;100.00;101622.66;5052091;28;20478;-72
2022/10/17 04:45:42;;;;;;;8.37;3.47;;;;;;;13.41;100.00;101625.88;5051984;28;20487;-72
2022/10/17 04:48:09;;;;;;;6.30;3.00;;;;;;;13.44;100.00;101619.88;5053301;28;20442;-72
2022/10/17 04:50:35;;;;;;;8.80;3.20;;;;;;;13.49;100.00;101617.06;5052023;28;20466;-73
2022/10/17 04:53:02;;;;;;;6.97;3.33;;;;;;;13.53;100.00;101620.81;5052310;28;20490;-73
2022/10/17 04:55:28;;;;;;;7.93;3.20;;;;;;;13.57;100.00;101621.84;5053502;28;20445;-73
2022/10/17 04:57:55;;;;;;;8.07;3.30;;;;;;;13.55;100.00;101621.34;5052464;28;20512;-73
2022/10/17 05:00:21;;;;;;;6.73;3.03;;;;;;;13.60;100.00;101624.00;5051174;28;20462;-73
2022/10/17 05:02:49;;;;;;;8.13;3.83;;;;;;;13.61;100.00;101625.59;5053150;28;20449;-73
2022/10/17 05:05:15;;;;;;;8.70;3.87;;;;;;;13.64;100.00;101625.03;5052068;28;20535;-73
2022/10/17 05:07:42;;;;;;;6.97;3.77;;;;;;;13.66;100.00;101627.44;5053065;28;20445;-73
2022/10/17 05:10:09;;;;;;;7.20;2.97;;;;;;;13.64;100.00;101619.56;5052260;28;20466;-73
2022/10/17 05:12:35;;;;;;;7.50;3.03;;;;;;;13.60;100.00;101621.28;5049978;28;20462;-73
2022/10/17 05:15:01;;;;;;;8.60;4.07;;;;;;;13.62;100.00;101622.56;5051578;28;20473;-73
2022/10/17 05:17:28;;;;;;;7.37;3.53;;;;;;;13.64;100.00;101616.84;5053101;28;20446;-73
2022/10/17 05:19:56;;;;;;;7.50;3.80;;;;;;;13.64;100.00;101619.56;5051244;28;20458;-71
2022/10/17 05:22:22;;;;;;;5.93;3.10;;;;;;;13.67;100.00;101616.25;5051242;28;20458;-70
2022/10/17 05:24:48;;;;;;;8.60;3.60;;;;;;;13.72;100.00;101616.16;5052513;28;21044;-72
2022/10/17 05:27:15;;;;;;;10.80;3.20;;;;;;;13.84;100.00;101612.97;5052319;28;20512;-71
2022/10/17 05:29:41;;;;;;;7.80;3.57;;;;;;;13.90;100.00;101622.69;5052413;28;20515;-72
2022/10/17 05:32:07;;;;;;;11.23;3.60;;;;;;;13.96;100.00;101626.16;5052919;28;20499;-72
2022/10/17 05:34:34;;;;;;;7.03;3.00;;;;;;;14.02;100.00;101624.94;5052870;28;20465;-72
2022/10/17 05:37:02;;;;;;;7.60;3.40;;;;;;;14.08;100.00;101621.03;5053490;28;20446;-72
2022/10/17 05:39:28;;;;;;;7.07;3.20;;;;;;;14.10;100.00;101624.25;5056696;28;20504;-72
2022/10/17 05:41:55;;;;;;;6.23;3.20;;;;;;;14.13;100.00;101621.75;5056809;28;20442;-72
2022/10/17 05:44:21;;;;;;;7.03;3.70;;;;;;;14.18;100.00;101623.56;5056642;28;20481;-72
2022/10/17 05:46:48;;;;;;;7.20;3.20;;;;;;;14.18;100.00;101629.03;5056608;28;20482;-72
2022/10/17 05:49:15;;;;;;;9.97;3.47;;;;;;;14.16;100.00;101636.69;5056724;28;20470;-72
2022/10/17 05:51:41;;;;;;;7.77;3.53;;;;;;;14.17;100.00;101632.88;5056644;28;20442;-71
2022/10/17 05:54:09;;;;;;;8.10;3.63;;;;;;;14.22;100.00;101637.41;5056224;28;20469;-72
2022/10/17 05:56:36;;;;;;;7.07;3.43;;;;;;;14.25;100.00;101634.06;5056259;28;21009;-72
2022/10/17 05:59:03;;;;;;;7.83;3.40;;;;;;;14.28;100.00;101636.22;5056520;28;20822;-74
2022/10/17 06:01:29;;;;;;;8.63;3.10;;;;;;;14.29;100.00;101646.00;5056439;28;20434;-73
2022/10/17 06:03:55;;;;;;;7.23;3.17;;;;;;;14.35;100.00;101651.06;5056446;28;20457;-74
2022/10/17 06:06:22;;;;;;;5.93;2.50;;;;;;;14.45;100.00;101652.78;5056382;28;20478;-74
2022/10/17 06:08:49;;;;;;;7.47;3.67;;;;;;;14.50;100.00;101662.81;5056000;28;20872;-74
2022/10/17 06:11:17;;;;;;;12.53;3.10;;;;;;;14.54;100.00;101655.66;5056263;28;20449;-74
2022/10/17 06:16:09;;;;;;;5.70;3.07;;;;;;;14.55;100.00;101665.47;5085862;22;20579;-81
2022/10/17 06:18:35;;;;;;;6.10;3.10;;;;;;;14.56;100.00;101665.16;5080525;28;20210;-81
2022/10/17 06:21:03;;;;;;;6.73;3.00;;;;;;;14.56;100.00;101675.25;5080821;28;20430;-81
2022/10/17 06:23:29;;;;;;;10.30;3.70;;;;;;;14.58;100.00;101664.88;5077801;22;20508;-79
2022/10/17 06:25:59;;;;;;;6.37;2.87;;;;;;;14.61;100.00;101672.44;5064599;28;20536;-78
2022/10/17 06:28:27;;;;;;;6.60;3.00;;;;;;;14.67;100.00;101676.69;5067055;28;20430;-78
2022/10/17 06:30:53;;;;;;;6.37;3.10;;;;;;;14.75;100.00;101676.00;5065558;28;20500;-79
2022/10/17 06:33:22;;;;;;;7.67;3.90;;;;;;;14.84;100.00;101676.91;5064192;28;20820;-79
2022/10/17 06:35:51;;;;;;;5.50;2.87;;;;;;;14.88;100.00;101674.38;5066403;28;20442;-79
2022/10/17 06:38:17;;;;;;;6.03;3.13;;;;;;;14.94;100.00;101673.16;5066056;28;20438;-79
2022/10/17 06:40:45;;;;;;;7.80;3.90;;;;;;;14.98;100.00;101682.34;5066929;28;20442;-79
2022/10/17 06:43:12;;;;;;;6.17;2.90;;;;;;;15.03;100.00;101684.16;5066981;28;20466;-80
2022/10/17 06:45:40;;;;;;;7.87;3.20;;;;;;;15.09;100.00;101683.75;5067923;28;20514;-79
2022/10/17 06:48:07;;;;;;;6.80;3.40;;;;;;;15.18;100.00;101683.03;5067143;28;20442;-79
2022/10/17 06:50:34;;;;;;;8.43;3.10;;;;;;;15.26;100.00;101674.13;5066406;28;20454;-79
2022/10/17 06:53:01;;;;;;;7.70;3.50;;;;;;;15.21;100.00;101677.78;5067135;28;20469;-80
2022/10/17 06:55:27;;;;;;;11.20;2.97;;;;;;;15.28;100.00;101683.66;5068696;28;20438;-79
2022/10/17 06:57:54;;;;;;;6.67;2.93;;;;;;;15.36;100.00;101679.38;5067091;28;20473;-78
2022/10/17 07:00:22;;;;;;;5.63;2.47;;;;;;;15.48;100.00;101678.84;5061162;28;20453;-78
2022/10/17 07:02:50;;;;;;;8.30;3.60;;;;;;;15.59;100.00;101682.97;5060618;28;20454;-79
2022/10/17 07:05:18;;;;;;;5.93;2.57;;;;;;;15.67;100.00;101690.47;5061569;28;20482;-79
2022/10/17 07:07:44;;;;;;;7.33;2.97;;;;;;;15.76;100.00;101690.53;5061443;28;20474;-78
2022/10/17 07:10:11;;;;;;;5.57;2.57;;;;;;;15.81;100.00;101696.69;5060718;28;20449;-78
2022/10/17 07:12:37;;;;;;;6.73;2.63;;;;;;;15.81;100.00;101693.97;5061011;28;20466;-79
2022/10/17 07:15:05;;;;;;;9.03;3.10;;;;;;;15.84;100.00;101704.25;5061320;28;20473;-78
2022/10/17 07:17:31;;;;;;;6.10;2.63;;;;;;;15.86;100.00;101706.69;5059910;28;20453;-78
2022/10/17 07:19:59;;;;;;;5.73;2.47;;;;;;;15.93;100.00;101720.72;5059795;28;20449;-78
2022/10/17 07:22:26;;;;;;;5.10;2.37;;;;;;;16.00;100.00;101723.03;5058434;28;21175;-78
2022/10/17 07:24:52;;;;;;;7.00;2.40;;;;;;;16.07;100.00;101718.78;5059367;28;20442;-78
2022/10/17 07:27:18;;;;;;;5.83;3.03;;;;;;;16.12;100.00;101720.56;5059344;28;20485;-78
2022/10/17 07:29:45;;;;;;;5.17;2.00;;;;;;;16.18;100.00;101716.59;5059803;28;20443;-78
2022/10/17 07:32:11;;;;;;;10.53;3.23;;;;;;;16.15;100.00;101707.06;5061315;28;20462;-78
2022/10/17 07:34:38;;;;;;;5.93;2.90;;;;;;;16.19;100.00;101707.25;5060461;28;20442;-78
2022/10/17 07:37:06;;;;;;;5.97;2.57;;;;;;;16.25;100.00;101711.50;5060501;28;20450;-78
2022/10/17 07:39:34;;;;;;;5.67;2.60;;;;;;;16.31;100.00;101715.72;5060388;28;20523;-78
2022/10/17 07:42:00;;;;;;;6.30;2.50;;;;;;;16.31;100.00;101712.97;5061408;28;20446;-78
2022/10/17 07:44:27;;;;;;;5.50;2.50;;;;;;;16.37;100.00;101716.38;5059594;28;20457;-78
2022/10/17 07:46:53;;;;;;;5.73;2.50;;;;;;;16.47;100.00;101718.03;5059192;28;20485;-78
2022/10/17 07:49:20;;;;;;;4.93;1.97;;;;;;;16.51;100.00;101724.50;5056712;28;20457;-78
2022/10/17 07:51:47;;;;;;;5.60;2.57;;;;;;;16.57;100.00;101717.81;5058757;28;20457;-78
2022/10/17 07:54:15;;;;;;;6.80;2.60;;;;;;;16.59;100.00;101721.00;5062022;28;21089;-79
2022/10/17 07:56:42;;;;;;;6.10;2.60;;;;;;;16.62;100.00;101721.19;5059461;28;20438;-78
2022/10/17 07:59:08;;;;;;;5.23;2.40;;;;;;;16.70;100.00;101721.56;5060499;28;20446;-79
2022/10/17 08:01:35;;;;;;;6.97;2.73;;;;;;;16.70;100.00;101716.91;5059335;28;20456;-78
2022/10/17 08:04:02;;;;;;;5.67;2.10;;;;;;;16.80;100.00;101724.84;5057985;28;21049;-78
2022/10/17 08:06:28;;;;;;;5.00;2.00;;;;;;;16.94;100.00;101726.69;5057489;28;20489;-78
2022/10/17 08:08:56;;;;;;;4.73;1.93;;;;;;;17.11;100.00;101726.75;5057283;28;20947;-77
2022/10/17 08:11:25;;;;;;;5.43;2.47;;;;;;;17.17;100.00;101722.72;5057382;28;20454;-78
2022/10/17 08:13:51;;;;;;;8.33;2.63;;;;;;;17.28;100.00;101720.53;5056370;28;20501;-78
2022/10/17 08:16:18;;;;;;;5.23;2.23;;;;;;;17.36;100.00;101717.81;5056981;28;20449;-78
2022/10/17 08:18:44;;;;;;;5.30;2.30;;;;;;;17.40;99.80;101720.72;5057724;28;20442;-78
2022/10/17 08:21:12;;;;;;;5.00;2.30;;;;;;;17.48;99.12;101719.91;5056767;28;20824;-78
2022/10/17 08:23:38;;;;;;;5.93;2.23;;;;;;;17.51;98.57;101718.47;5056029;28;20510;-78
2022/10/17 08:26:09;;;;;;;5.57;2.00;;;;;;;17.62;97.70;101723.34;5057287;28;20486;-78
2022/10/17 08:28:38;;;;;;;5.10;2.03;;;;;;;17.69;97.03;101727.53;5056133;28;20518;-78
2022/10/17 08:31:06;;;;;;;8.10;3.07;;;;;;;17.67;97.30;101721.56;5056200;28;20864;-78
2022/10/17 08:33:33;;;;;;;8.07;2.33;;;;;;;17.72;96.48;101716.72;5056081;28;20467;-78
2022/10/17 08:35:59;;;;;;;5.47;2.43;;;;;;;17.79;96.29;101716.25;5055570;28;20978;-78
2022/10/17 08:38:26;;;;;;;5.03;1.90;;;;;;;17.84;96.28;101725.16;5056411;28;20446;-78
2022/10/17 08:40:53;;;;;;;6.07;2.03;;;;;;;17.89;96.01;101722.25;5055831;28;20430;-77
2022/10/17 08:43:42;;;;;;;6.07;2.30;;;;;;;17.96;95.33;101718.19;5050693;28;20517;-78
2022/10/17 08:46:10;;;;;;;5.40;2.20;;;;;;;18.02;95.24;101722.41;5038437;28;20478;-78
2022/10/17 08:48:40;;;;;;;5.77;1.97;;;;;;;18.13;94.50;101727.22;5034485;28;20477;-78
2022/10/17 08:51:13;;;;;;;5.90;2.10;;;;;;;18.26;93.71;101719.94;5048202;28;20496;-78
2022/10/17 08:53:43;;;;;;;4.93;1.57;;;;;;;18.27;93.95;101718.81;5035817;28;20471;-78
2022/10/17 08:56:17;;;;;;;9.03;2.00;;;;;;;18.34;93.86;101721.88;5037521;28;20439;-79
2022/10/17 08:58:45;;;;;;;5.67;1.73;;;;;;;18.44;93.89;101717.97;5044046;28;20787;-79
2022/10/17 09:01:31;;;;;;;5.93;2.20;;;;;;;18.55;92.91;101721.16;5059207;28;20450;-79
2022/10/17 09:04:25;;;;;;;5.70;2.10;;;;;;;18.58;92.44;101724.06;5061239;28;20462;-78
2022/10/17 09:06:59;;;;;;;4.33;1.63;;;;;;;18.67;91.80;101726.78;5056723;28;20474;-79
2022/10/17 09:09:34;;;;;;;5.10;1.87;;;;;;;18.67;92.24;101735.03;5058777;28;20437;-78
2022/10/17 09:12:14;;;;;;;9.10;1.60;;;;;;;18.71;92.48;101729.72;5058699;28;20434;-79
2022/10/17 09:14:53;;;;;;;4.43;1.73;;;;;;;18.75;92.53;101728.75;5058895;28;20433;-78
2022/10/17 09:17:32;;;;;;;5.40;2.50;;;;;;;18.89;92.44;101732.06;5058271;28;20434;-78
2022/10/17 09:20:04;;;;;;;4.70;1.93;;;;;;;19.01;92.04;101725.09;5058950;28;20458;-78
2022/10/17 09:22:37;;;;;;;5.77;2.10;;;;;;;19.10;91.08;101717.59;5058308;28;20477;-78
2022/10/17 09:25:10;;;;;;;18.53;2.17;;;;;;;19.29;90.03;101717.19;5058888;28;20430;-78
2022/10/17 09:27:41;;;;;;;5.90;2.03;;;;;;;19.40;88.86;101721.97;5058956;28;20482;-79
2022/10/17 09:30:25;;;;;;;5.03;1.70;;;;;;;19.56;87.31;101715.88;5058726;28;20431;-78
2022/10/17 09:32:52;;;;;;;4.70;1.67;;;;;;;19.64;87.70;101709.53;5059263;28;20466;-78
2022/10/17 09:35:20;;;;;;;4.53;1.77;;;;;;;19.71;86.71;101707.06;5059218;28;20451;-78
2022/10/17 09:37:48;;;;;;;6.27;2.13;;;;;;;19.72;85.96;101711.41;5060358;28;20446;-79
2022/10/17 09:40:21;;;;;;;4.50;1.97;;;;;;;19.81;86.61;101701.16;5059125;28;20456;-78
2022/10/17 09:42:50;;;;;;;4.10;1.20;;;;;;;19.88;85.82;101706.13;5059253;28;20477;-79
2022/10/17 09:45:24;;;;;;;7.63;3.60;;;;;;;19.99;84.73;101709.25;5059156;28;20901;-79
2022/10/17 09:47:59;;;;;;;8.07;1.60;;;;;;;20.01;85.76;101707.78;5059565;28;20466;-78
2022/10/17 09:50:28;;;;;;;4.80;1.63;;;;;;;20.12;85.13;101708.97;5060241;28;20466;-79
2022/10/17 09:52:56;;;;;;;6.17;2.03;;;;;;;20.24;83.87;101715.66;5059406;28;20512;-78
2022/10/17 09:55:33;;;;;;;25.13;2.00;;;;;;;20.37;83.31;101714.56;5059296;28;20450;-78
2022/10/17 09:58:02;;;;;;;4.73;1.80;;;;;;;20.43;83.42;101713.19;5060647;28;20969;-78
2022/10/17 10:00:32;;;;;;;5.30;1.60;;;;;;;20.49;82.51;101716.56;5060236;28;20496;-79
2022/10/17 10:03:10;;;;;;;6.57;2.20;;;;;;;20.66;81.63;101716.34;5058902;28;20837;-79
2022/10/17 10:05:37;;;;;;;4.50;1.50;;;;;;;20.90;81.31;101716.41;5058881;28;20444;-78
2022/10/17 10:08:06;;;;;;;4.40;1.90;;;;;;;21.02;80.45;101720.28;5059531;28;20600;-78
2022/10/17 10:10:33;;;;;;;5.50;1.60;;;;;;;21.19;80.38;101722.00;5059878;28;20453;-78
2022/10/17 10:13:06;;;;;;;3.80;1.40;;;;;;;21.31;78.81;101722.84;5059446;28;20477;-79
2022/10/17 10:15:40;;;;;;;4.60;1.70;;;;;;;21.48;78.54;101721.78;5059148;28;20450;-79
2022/10/17 10:18:28;;;;;;;4.47;1.70;;;;;;;21.62;77.75;101718.66;5056385;28;20457;-78
2022/10/17 10:21:08;;;;;;;4.67;1.80;;;;;;;21.77;76.49;101720.66;5058634;28;20457;-78
2022/10/17 10:23:44;;;;;;;3.63;1.10;;;;;;;21.87;76.34;101728.47;5060017;28;20508;-78
2022/10/17 10:26:25;;;;;;;4.77;1.50;;;;;;;21.90;75.12;101718.69;5062279;28;20430;-78
2022/10/17 10:28:56;;;;;;;6.30;1.90;;;;;;;21.94;75.41;101719.59;5053085;28;20531;-78
2022/10/17 10:31:31;;;;;;;3.90;1.40;;;;;;;22.02;75.03;101717.84;5058276;28;20434;-78
2022/10/17 10:34:00;;;;;;;3.67;1.23;;;;;;;22.14;75.49;101718.63;5057189;28;20998;-78
2022/10/17 10:36:43;;;;;;;4.13;1.63;;;;;;;22.26;74.13;101720.50;5058591;28;20458;-78
2022/10/17 10:39:32;;;;;;;4.90;1.40;;;;;;;22.39;72.93;101724.00;5058736;28;20461;-78
2022/10/17 10:41:59;;;;;;;4.80;1.50;;;;;;;22.52;72.28;101719.22;5059613;28;20438;-78
2022/10/17 10:44:30;;;;;;;3.83;1.10;;;;;;;22.68;71.78;101714.50;5058083;28;20462;-79
2022/10/17 10:47:15;;;;;;;4.10;1.37;;;;;;;22.61;71.61;101709.59;5058966;28;20477;-78
2022/10/17 10:49:42;;;;;;;3.70;1.10;;;;;;;22.67;71.32;101704.63;5058411;28;20549;-78
2022/10/17 10:52:17;;;;;;;4.73;1.70;;;;;;;22.74;71.30;101709.50;5058517;28;20450;-78
2022/10/17 10:54:51;;;;;;;4.30;1.70;;;;;;;22.88;71.48;101698.81;5054465;28;20521;-77
2022/10/17 10:57:21;;;;;;;5.50;1.30;;;;;;;23.06;71.90;101707.56;5058401;28;20784;-78
2022/10/17 10:59:57;;;;;;;5.90;1.50;;;;;;;23.30;71.18;101706.53;5058551;28;20461;-78
2022/10/17 11:02:30;;;;;;;5.07;1.93;;;;;;;23.73;69.45;101705.53;5058420;28;20517;-78
2022/10/17 11:05:01;;;;;;;4.63;1.17;;;;;;;24.42;66.71;101711.25;5058701;28;20438;-78
2022/10/17 11:07:34;;;;;;;3.40;1.10;;;;;;;25.11;63.50;101714.03;5060701;28;20928;-78
2022/10/17 11:10:08;;;;;;;6.63;1.47;;;;;;;25.77;60.85;101707.03;5063416;28;20912;-79
2022/10/17 11:12:39;;;;;;;7.80;1.60;;;;;;;26.39;59.29;101707.31;5057594;28;20853;-78
2022/10/17 11:15:17;;;;;;;3.63;1.23;;;;;;;27.13;57.16;101695.25;5059035;28;20433;-76
2022/10/17 11:17:55;;;;;;;4.00;1.57;;;;;;;27.38;54.29;101703.75;5054052;28;20458;-76
2022/10/17 11:20:29;;;;;;;4.37;1.53;;;;;;;27.77;53.22;101694.81;5054745;28;20512;-76
2022/10/17 11:23:01;;;;;;;4.20;1.50;;;;;;;28.00;52.60;101699.25;5054873;28;20462;-76
2022/10/17 11:25:32;;;;;;;4.13;1.50;;;;;;;28.16;51.13;101696.94;5054247;28;20458;-76
2022/10/17 11:28:00;;;;;;;3.80;1.50;;;;;;;28.17;51.10;101701.31;5053919;28;20990;-77
2022/10/17 11:30:40;;;;;;;4.17;1.60;;;;;;;28.32;50.99;101704.91;5054884;28;20450;-77
2022/10/17 11:33:12;;;;;;;5.17;1.30;;;;;;;28.12;49.72;101705.28;5051789;28;20549;-77